Hualapai, Arizona
Current Conditions -  °F | °C
As of 11:54 PM on Friday 24 Oct 2014 (Local Time) from KGCN Reporting Station
Smoke Smoke  
Wind Chill: 34°   Ceiling: Unl
Heat Index: 34°   Visibility: 7mi
Dew Point: 22°   Wind: 0mph
Humidity: 61%   Direction: NA
Pressure: 30.35"   Gusts: NA
Location:  35.9°N, 113.11°W
Report Text: KGCN 250654Z 00000KT 7SM FU CLR 01/M06 A3035 RMK AO2 SLP217 T00111056 402441022
Loading
Personal Weather Stations






























Interactive Weather Map New forecast layout! Learn more

10-Day Weather Forecast

Advertisements
Track Severe Weather on mobile